createdAt,value
2019-04-06T00:01:14.164Z,32.77
2019-04-06T00:03:44.141Z,30.67
2019-04-06T00:06:13.905Z,31.00
2019-04-06T00:08:43.706Z,31.80
2019-04-06T00:11:15.437Z,32.17
2019-04-06T00:13:45.277Z,31.57
2019-04-06T00:16:15.087Z,32.60
2019-04-06T00:18:45.367Z,31.70
2019-04-06T00:21:15.070Z,31.87
2019-04-06T00:23:44.922Z,31.73
2019-04-06T00:26:14.709Z,31.70
2019-04-06T00:28:44.491Z,31.50
2019-04-06T00:31:15.903Z,32.43
2019-04-06T00:33:45.736Z,32.33
2019-04-06T00:36:15.658Z,33.13
2019-04-06T00:38:45.518Z,33.03
2019-04-06T00:41:15.329Z,31.93
2019-04-06T00:43:45.152Z,30.30
2019-04-06T00:46:14.971Z,29.93
2019-04-06T00:48:44.657Z,29.33
2019-04-06T00:51:14.495Z,28.87
2019-04-06T00:53:44.244Z,30.67
2019-04-06T00:56:13.968Z,30.93
2019-04-06T00:58:43.680Z,30.63
2019-04-06T01:01:13.766Z,28.83
2019-04-06T01:03:43.681Z,30.23
2019-04-06T01:06:13.507Z,30.27
2019-04-06T01:08:43.390Z,30.33
2019-04-06T01:11:13.133Z,30.93
2019-04-06T01:13:42.971Z,29.00
2019-04-06T01:16:12.745Z,29.80
2019-04-06T01:18:42.590Z,29.63
2019-04-06T01:21:12.350Z,28.50
2019-04-06T01:23:42.203Z,30.77
2019-04-06T01:26:12.060Z,30.20
2019-04-06T01:28:41.774Z,31.00
2019-04-06T01:31:11.528Z,30.10
2019-04-06T01:33:41.300Z,29.87
2019-04-06T01:36:11.121Z,29.57
2019-04-06T01:38:41.026Z,30.10
2019-04-06T01:41:10.810Z,29.07
2019-04-06T01:43:40.550Z,29.17
2019-04-06T01:46:10.372Z,29.07
2019-04-06T01:48:40.198Z,30.83
2019-04-06T01:51:10.039Z,29.17
2019-04-06T01:53:39.850Z,29.67
2019-04-06T01:56:17.871Z,28.00
2019-04-06T01:58:41.122Z,28.70
2019-04-06T02:01:27.310Z,27.67
2019-04-06T02:03:57.030Z,28.37
2019-04-06T02:06:26.892Z,29.37
2019-04-06T02:08:56.712Z,27.37
2019-04-06T02:11:26.499Z,27.67
2019-04-06T02:13:56.255Z,28.77
2019-04-06T02:16:25.983Z,28.07
2019-04-06T02:18:55.718Z,27.57
2019-04-06T02:21:25.509Z,27.07
2019-04-06T02:23:55.376Z,28.50
2019-04-06T02:26:30.947Z,27.80
2019-04-06T02:28:56.701Z,27.20
2019-04-06T02:31:28.064Z,26.53
2019-04-06T02:33:59.525Z,26.73
2019-04-06T02:36:42.868Z,26.60
2019-04-06T02:39:30.249Z,28.43
2019-04-06T02:42:04.649Z,26.60
2019-04-06T02:44:34.417Z,28.00
2019-04-06T02:47:04.091Z,27.23
2019-04-06T02:49:33.799Z,28.00
2019-04-06T02:52:03.730Z,28.30
2019-04-06T02:54:33.522Z,28.87
2019-04-06T02:57:03.536Z,27.00
2019-04-06T02:59:33.450Z,27.90
2019-04-06T03:02:03.195Z,27.13
2019-04-06T03:04:33.125Z,28.07
2019-04-06T03:07:02.977Z,27.37
2019-04-06T03:09:32.836Z,28.30
2019-04-06T03:12:02.973Z,27.90
2019-04-06T03:14:32.891Z,28.53
2019-04-06T03:17:02.726Z,27.80
2019-04-06T03:19:32.650Z,27.60
2019-04-06T03:22:02.480Z,28.67
2019-04-06T03:24:32.285Z,27.37
2019-04-06T03:27:02.951Z,27.60
2019-04-06T03:29:33.014Z,27.83
2019-04-06T03:32:02.721Z,27.20
2019-04-06T03:34:32.487Z,27.13
2019-04-06T03:37:02.301Z,30.03
2019-04-06T03:39:32.358Z,28.07
2019-04-06T03:42:02.277Z,28.80
2019-04-06T03:44:32.058Z,27.67
2019-04-06T03:47:01.761Z,27.73
2019-04-06T03:49:31.680Z,29.70
2019-04-06T03:52:01.352Z,29.77
2019-04-06T03:54:31.056Z,29.23
2019-04-06T03:57:13.969Z,28.47
2019-04-06T03:59:32.098Z,29.20
2019-04-06T04:02:01.965Z,28.37
2019-04-06T04:04:31.506Z,29.40
2019-04-06T04:07:01.330Z,28.10
2019-04-06T04:09:31.066Z,28.50
2019-04-06T04:12:00.861Z,28.80
2019-04-06T04:14:30.515Z,27.60
2019-04-06T04:17:00.340Z,29.73
2019-04-06T04:19:30.016Z,28.23
2019-04-06T04:21:59.777Z,28.33
2019-04-06T04:24:29.478Z,27.73
2019-04-06T04:26:59.291Z,27.27
2019-04-06T04:29:29.009Z,28.20
2019-04-06T04:31:58.708Z,27.20
2019-04-06T04:34:28.619Z,27.83
2019-04-06T04:36:58.626Z,27.70
2019-04-06T04:39:28.469Z,26.67
2019-04-06T04:41:58.216Z,27.03
2019-04-06T04:44:27.979Z,28.63
2019-04-06T04:46:57.676Z,27.30
2019-04-06T04:49:27.373Z,28.53
2019-04-06T04:51:57.055Z,27.33
2019-04-06T04:54:26.890Z,28.30
2019-04-06T04:56:56.598Z,27.67
2019-04-06T04:59:26.343Z,26.60
2019-04-06T05:01:56.048Z,27.97
2019-04-06T05:04:25.747Z,30.00
2019-04-06T05:06:55.461Z,28.30
2019-04-06T05:09:25.139Z,28.50
2019-04-06T05:11:54.827Z,27.53
2019-04-06T05:14:57.333Z,29.07
2019-04-06T05:17:27.475Z,27.30
2019-04-06T05:19:57.828Z,27.63
2019-04-06T05:22:27.771Z,28.27
2019-04-06T05:24:57.822Z,28.73
2019-04-06T05:27:27.728Z,27.80
2019-04-06T05:29:57.533Z,29.07
2019-04-06T05:32:27.440Z,45.87
2019-04-06T05:34:58.383Z,27.37
2019-04-06T05:37:28.301Z,29.00
2019-04-06T05:39:57.962Z,28.60
2019-04-06T05:42:27.705Z,28.80
2019-04-06T05:44:57.375Z,29.60
2019-04-06T05:47:27.149Z,27.43
2019-04-06T05:49:57.139Z,28.80
2019-04-06T05:52:27.111Z,27.90
2019-04-06T05:54:56.869Z,27.63
2019-04-06T05:57:26.968Z,27.97
2019-04-06T05:59:56.776Z,28.33
2019-04-06T06:02:26.882Z,26.10
2019-04-06T06:04:56.773Z,24.90
2019-04-06T06:07:26.482Z,28.17
2019-04-06T06:09:56.197Z,26.73
2019-04-06T06:12:25.871Z,27.00
2019-04-06T06:14:55.635Z,26.60
2019-04-06T06:17:25.586Z,25.30
2019-04-06T06:19:55.298Z,26.37
2019-04-06T06:22:24.993Z,23.93
2019-04-06T06:24:54.747Z,25.43
2019-04-06T06:27:24.556Z,25.60
2019-04-06T06:29:54.222Z,26.07
2019-04-06T06:32:23.949Z,26.00
2019-04-06T06:34:53.661Z,25.93
2019-04-06T06:37:23.425Z,25.47
2019-04-06T06:39:53.434Z,25.93
2019-04-06T06:42:23.190Z,25.10
2019-04-06T06:44:53.227Z,25.57
2019-04-06T06:47:22.962Z,26.07
2019-04-06T06:49:52.852Z,25.20
2019-04-06T06:52:22.532Z,25.97
2019-04-06T06:54:52.555Z,25.60
2019-04-06T06:57:22.246Z,24.47
2019-04-06T06:59:52.122Z,26.03
2019-04-06T07:02:22.016Z,25.17
2019-04-06T07:04:51.691Z,23.87
2019-04-06T07:07:21.409Z,25.63
2019-04-06T07:09:51.165Z,24.40
2019-04-06T07:12:20.848Z,23.40
2019-04-06T07:14:50.799Z,29.43
2019-04-06T07:17:20.603Z,25.80
2019-04-06T07:19:50.255Z,25.27
2019-04-06T07:22:19.988Z,24.33
2019-04-06T07:24:49.903Z,24.83
2019-04-06T07:27:19.578Z,25.77
2019-04-06T07:29:49.297Z,25.43
2019-04-06T07:32:19.108Z,23.80
2019-04-06T07:34:50.494Z,23.77
2019-04-06T07:37:20.427Z,23.73
2019-04-06T07:39:50.204Z,25.07
2019-04-06T07:42:20.068Z,24.17
2019-04-06T07:44:49.986Z,24.73
2019-04-06T07:47:19.918Z,24.20
2019-04-06T07:49:49.646Z,23.27
2019-04-06T07:52:19.671Z,23.13
2019-04-06T07:54:49.926Z,22.47
2019-04-06T07:57:19.635Z,24.93
2019-04-06T07:59:49.323Z,24.63
2019-04-06T08:02:19.101Z,23.40
2019-04-06T08:04:48.852Z,22.77
2019-04-06T08:07:18.534Z,23.27
2019-04-06T08:09:48.336Z,23.60
2019-04-06T08:12:18.118Z,22.20
2019-04-06T08:14:48.201Z,22.50
2019-04-06T08:17:17.936Z,23.70
2019-04-06T08:19:47.577Z,23.33
2019-04-06T08:22:17.424Z,20.77
2019-04-06T08:24:47.134Z,22.73
2019-04-06T08:27:16.991Z,21.90
2019-04-06T08:29:46.721Z,21.27
2019-04-06T08:32:16.548Z,22.90
2019-04-06T08:34:46.264Z,24.07
2019-04-06T08:37:15.945Z,21.53
2019-04-06T08:39:45.875Z,21.60
2019-04-06T08:42:15.593Z,22.07
2019-04-06T08:44:45.639Z,23.73
2019-04-06T08:47:15.315Z,22.10
2019-04-06T08:49:45.163Z,22.77
2019-04-06T08:52:14.927Z,22.07
2019-04-06T08:54:45.717Z,22.63
2019-04-06T08:57:15.388Z,20.63
2019-04-06T08:59:45.246Z,22.53
2019-04-06T09:02:15.032Z,21.40
2019-04-06T09:04:44.792Z,21.70
2019-04-06T09:07:14.976Z,21.77
2019-04-06T09:09:44.805Z,22.27
2019-04-06T09:12:14.500Z,20.40
2019-04-06T09:14:44.451Z,21.07
2019-04-06T09:17:14.343Z,19.63
2019-04-06T09:19:44.258Z,21.33
2019-04-06T09:22:14.248Z,21.17
2019-04-06T09:24:44.203Z,20.07
2019-04-06T09:27:14.003Z,21.00
2019-04-06T09:29:43.848Z,20.80
2019-04-06T09:32:13.705Z,19.23
2019-04-06T09:34:43.664Z,19.27
2019-04-06T09:37:13.426Z,20.47
2019-04-06T09:39:43.128Z,21.07
2019-04-06T09:42:13.061Z,22.77
2019-04-06T09:44:48.353Z,21.27
2019-04-06T09:47:22.344Z,22.30
2019-04-06T09:50:09.858Z,22.03
2019-04-06T09:52:41.280Z,22.77
2019-04-06T09:55:12.703Z,21.63
2019-04-06T09:57:46.969Z,21.53
2019-04-06T10:00:21.952Z,22.50
2019-04-06T10:03:05.745Z,23.43
2019-04-06T10:05:37.308Z,23.60
2019-04-06T10:08:22.779Z,22.10
2019-04-06T10:11:02.776Z,21.97
2019-04-06T10:13:40.115Z,22.30
2019-04-06T10:16:14.129Z,22.17
2019-04-06T10:18:46.761Z,22.07
2019-04-06T10:21:16.406Z,23.00
2019-04-06T10:23:50.973Z,22.97
2019-04-06T10:26:20.531Z,22.53
2019-04-06T10:28:57.600Z,22.77
2019-04-06T10:31:43.468Z,22.57
2019-04-06T10:34:25.195Z,22.93
2019-04-06T10:36:56.683Z,23.00
2019-04-06T10:39:30.880Z,22.27
2019-04-06T10:42:05.214Z,23.47
2019-04-06T10:44:52.785Z,24.00
2019-04-06T10:47:26.936Z,23.23
2019-04-06T10:50:04.685Z,23.70
2019-04-06T10:52:41.694Z,22.87
2019-04-06T10:55:29.288Z,24.13
2019-04-06T10:58:04.843Z,22.23
2019-04-06T11:00:38.807Z,23.10
2019-04-06T11:03:10.163Z,22.97
2019-04-06T11:05:57.215Z,23.07
2019-04-06T11:08:34.468Z,23.43
2019-04-06T11:11:05.911Z,23.70
2019-04-06T11:13:38.012Z,23.17
2019-04-06T11:16:25.679Z,22.37
2019-04-06T11:19:06.225Z,23.47
2019-04-06T11:21:44.932Z,23.77
2019-04-06T11:24:16.600Z,23.83
2019-04-06T11:26:46.101Z,22.53
2019-04-06T11:29:24.891Z,23.70
2019-04-06T11:31:56.291Z,22.83
2019-04-06T11:34:33.345Z,24.87
2019-04-06T11:37:20.828Z,24.63
2019-04-06T11:40:08.365Z,23.53
2019-04-06T11:42:55.815Z,25.47
2019-04-06T11:45:39.525Z,24.20
2019-04-06T11:48:11.759Z,25.13
2019-04-06T11:51:01.218Z,23.67
2019-04-06T11:53:35.220Z,24.53
2019-04-06T11:56:15.614Z,23.37
2019-04-06T11:59:03.651Z,25.93
2019-04-06T12:01:35.174Z,24.87
2019-04-06T12:04:09.498Z,26.40
2019-04-06T12:06:41.184Z,24.57
2019-04-06T12:09:12.857Z,24.63
2019-04-06T12:11:44.396Z,25.67
2019-04-06T12:14:22.060Z,26.20
2019-04-06T12:16:53.624Z,26.83
2019-04-06T12:19:27.971Z,26.10
2019-04-06T12:22:00.505Z,25.60
2019-04-06T12:24:40.725Z,25.87
2019-04-06T12:27:28.031Z,25.87
2019-04-06T12:29:57.573Z,26.13
2019-04-06T12:32:47.403Z,23.10
2019-04-06T12:35:34.400Z,25.53
2019-04-06T12:38:08.755Z,26.47
2019-04-06T12:40:41.183Z,26.53
2019-04-06T12:43:31.297Z,25.80
2019-04-06T12:46:17.978Z,24.23
2019-04-06T12:48:52.536Z,25.83
2019-04-06T12:51:39.585Z,26.57
2019-04-06T13:32:13.378Z,24.90
2019-04-06T13:34:47.691Z,25.20
2019-04-06T13:37:17.478Z,26.30
2019-04-06T13:39:52.117Z,27.43
2019-04-06T13:42:32.487Z,25.67
2019-04-06T13:45:03.963Z,26.43
2019-04-06T13:47:33.569Z,27.40
2019-04-06T13:50:15.846Z,25.97
2019-04-06T13:52:47.158Z,26.10
2019-04-06T13:55:25.535Z,28.73
2019-04-06T13:57:59.462Z,27.97
2019-04-06T14:00:46.951Z,26.00
2019-04-06T14:03:23.935Z,24.53
2019-04-06T14:05:58.431Z,25.53
2019-04-06T14:08:38.632Z,24.30
2019-04-06T14:11:08.196Z,25.33
2019-04-06T14:13:51.529Z,24.10
2019-04-06T14:16:28.875Z,23.93
2019-04-06T14:19:16.298Z,22.60
2019-04-06T14:21:50.757Z,24.80
2019-04-06T14:24:22.802Z,23.90
2019-04-06T14:27:01.895Z,24.63
2019-04-06T14:29:51.621Z,23.60
2019-04-06T14:32:25.951Z,25.37
2019-04-06T14:35:12.033Z,25.20
2019-04-06T14:37:53.687Z,22.53
2019-04-06T14:40:29.252Z,24.83
2019-04-06T14:43:08.096Z,24.77
2019-04-06T14:45:40.220Z,25.37
2019-04-06T14:48:15.431Z,24.40
2019-04-06T14:50:49.634Z,24.00
2019-04-06T14:53:23.986Z,23.67
2019-04-06T14:55:55.638Z,23.07
2019-04-06T14:58:30.196Z,22.23
2019-04-06T15:01:10.875Z,23.33
2019-04-06T15:03:59.062Z,22.53
2019-04-06T15:06:28.673Z,21.83
2019-04-06T15:09:01.044Z,21.00
2019-04-06T15:11:30.707Z,18.93
2019-04-06T15:14:00.211Z,19.90
2019-04-06T15:16:45.008Z,18.83
2019-04-06T15:19:18.016Z,19.83
2019-04-06T15:22:01.562Z,18.03
2019-04-06T15:24:32.929Z,18.37
2019-04-06T15:27:05.053Z,17.07
2019-04-06T15:29:48.303Z,17.47
2019-04-06T15:32:30.078Z,17.57
2019-04-06T15:35:17.438Z,16.80
2019-04-06T15:37:49.322Z,15.60
2019-04-06T15:40:29.929Z,16.13
2019-04-06T15:43:10.236Z,14.90
2019-04-06T15:45:48.073Z,14.13
2019-04-06T15:48:20.399Z,17.13
2019-04-06T15:50:52.378Z,17.07
2019-04-06T15:53:21.881Z,17.40
2019-04-06T15:55:59.420Z,20.57
2019-04-06T15:58:30.788Z,17.40
2019-04-06T16:01:09.365Z,17.30
2019-04-06T16:03:47.524Z,16.53
2019-04-06T16:06:19.716Z,15.30
2019-04-06T16:08:57.110Z,14.57
2019-04-06T16:11:28.644Z,16.67
2019-04-06T16:14:08.509Z,14.83
2019-04-06T16:16:41.026Z,12.83
2019-04-06T16:19:15.333Z,14.23
2019-04-06T16:21:49.689Z,15.07
2019-04-06T16:24:23.950Z,15.23
2019-04-06T16:26:55.385Z,14.83
2019-04-06T16:29:32.974Z,13.47
2019-04-06T16:32:15.041Z,14.40
2019-04-06T16:34:47.143Z,13.83
2019-04-06T16:37:18.493Z,15.33
2019-04-06T16:39:53.577Z,14.60
2019-04-06T16:42:37.367Z,14.50
2019-04-06T16:45:12.377Z,16.47
2019-04-06T16:48:02.155Z,17.47
2019-04-06T16:50:42.683Z,17.10
2019-04-06T16:53:25.869Z,17.20
2019-04-06T16:56:15.097Z,16.73
2019-04-06T16:58:55.384Z,15.43
2019-04-06T17:01:35.614Z,17.20
2019-04-06T17:04:23.782Z,17.33
2019-04-06T17:07:00.785Z,16.93
2019-04-06T17:09:34.447Z,17.43
2019-04-06T17:12:06.383Z,16.83
2019-04-06T17:14:54.189Z,18.63
2019-04-06T17:17:41.889Z,17.43
2019-04-06T17:20:13.663Z,18.90
2019-04-06T17:23:01.209Z,19.00
2019-04-06T17:25:33.003Z,20.00
2019-04-06T17:28:20.169Z,19.97
2019-04-06T17:30:51.927Z,23.77
2019-04-06T17:33:23.571Z,25.23
2019-04-06T17:35:55.271Z,26.83
2019-04-06T17:38:39.765Z,28.33
2019-04-06T17:41:11.398Z,30.60
2019-04-06T17:43:58.991Z,30.07
2019-04-06T17:46:31.569Z,30.90
2019-04-06T17:49:03.413Z,29.73
2019-04-06T17:51:37.335Z,32.37
2019-04-06T17:54:24.752Z,33.13
2019-04-06T17:57:12.311Z,32.30
2019-04-06T18:00:00.065Z,33.53
2019-04-06T18:02:31.532Z,32.40
2019-04-06T18:05:05.627Z,34.90
2019-04-06T18:07:37.055Z,33.97
2019-04-06T18:10:09.351Z,34.53
2019-04-06T18:12:56.744Z,33.40
2019-04-06T18:15:26.613Z,32.87
2019-04-06T18:17:56.441Z,35.10
2019-04-06T18:20:26.302Z,35.03
2019-04-06T18:22:56.140Z,34.50
2019-04-06T18:25:25.864Z,35.23
2019-04-06T18:27:56.186Z,33.63
2019-04-06T18:30:25.987Z,35.63
2019-04-06T18:33:07.213Z,37.80
2019-04-06T18:35:37.135Z,37.40
2019-04-06T18:38:20.968Z,36.63
2019-04-06T18:40:51.484Z,35.30
2019-04-06T18:43:21.733Z,35.63
2019-04-06T18:45:51.508Z,36.50
2019-04-06T18:48:21.362Z,35.10
2019-04-06T18:50:51.748Z,36.67
2019-04-06T18:53:21.997Z,36.90
2019-04-06T18:55:51.993Z,37.67
2019-04-06T18:58:22.046Z,36.80
2019-04-06T19:00:51.862Z,37.03
2019-04-06T19:03:22.012Z,37.03
2019-04-06T19:05:52.197Z,36.13
2019-04-06T19:08:21.915Z,37.80
2019-04-06T19:10:52.560Z,36.60
2019-04-06T19:13:23.221Z,38.57
2019-04-06T19:15:53.548Z,36.33
2019-04-06T19:18:23.225Z,36.97
2019-04-06T19:20:53.001Z,36.23
2019-04-06T19:23:22.961Z,38.20
2019-04-06T19:25:52.822Z,39.53
2019-04-06T19:28:22.551Z,40.67
2019-04-06T19:30:52.365Z,39.77
2019-04-06T19:33:25.458Z,37.93
2019-04-06T19:35:53.597Z,39.17
2019-04-06T19:38:23.400Z,39.77
2019-04-06T19:40:53.135Z,38.93
2019-04-06T19:43:22.946Z,39.47
2019-04-06T19:45:52.947Z,40.30
2019-04-06T19:48:22.843Z,39.87
2019-04-06T19:50:53.195Z,40.27
2019-04-06T19:53:23.267Z,41.57
2019-04-06T19:55:53.119Z,40.47
2019-04-06T19:58:22.958Z,40.53
2019-04-06T20:00:52.791Z,38.93
2019-04-06T20:03:33.678Z,40.43
2019-04-06T20:05:54.255Z,38.50
2019-04-06T20:08:24.160Z,40.20
2019-04-06T20:10:54.330Z,40.27
2019-04-06T20:13:24.830Z,40.10
2019-04-06T20:15:54.731Z,39.90
2019-04-06T20:18:24.622Z,41.83
2019-04-06T20:20:55.187Z,40.07
2019-04-06T20:23:25.394Z,40.97
2019-04-06T20:25:55.667Z,39.47
2019-04-06T20:28:25.529Z,40.57
2019-04-06T20:30:55.523Z,40.07
2019-04-06T20:33:25.194Z,40.50
2019-04-06T20:35:55.452Z,41.67
2019-04-06T20:38:25.163Z,41.10
2019-04-06T20:40:55.013Z,39.70
2019-04-06T20:43:24.865Z,41.93
2019-04-06T20:45:55.326Z,39.53
2019-04-06T20:48:25.056Z,41.60
2019-04-06T20:50:55.098Z,40.23
2019-04-06T20:53:25.295Z,40.27
2019-04-06T20:55:55.352Z,40.67
2019-04-06T20:58:25.003Z,42.03
2019-04-06T21:00:56.441Z,39.27
2019-04-06T21:03:26.544Z,41.83
2019-04-06T21:05:56.494Z,43.27
2019-04-06T21:08:26.413Z,42.57
2019-04-06T21:10:56.627Z,41.53
2019-04-06T21:13:26.746Z,40.93
2019-04-06T21:15:56.635Z,42.97
2019-04-06T21:18:26.685Z,41.87
2019-04-06T21:20:56.403Z,40.40
2019-04-06T21:23:26.313Z,41.07
2019-04-06T21:25:56.094Z,40.13
2019-04-06T21:28:26.002Z,42.03
2019-04-06T21:30:56.489Z,41.97
2019-04-06T21:33:26.706Z,40.70
2019-04-06T21:35:56.583Z,42.00
2019-04-06T21:38:26.735Z,42.63
2019-04-06T21:40:57.022Z,42.77
2019-04-06T21:43:26.797Z,41.83
2019-04-06T21:45:56.823Z,41.67
2019-04-06T21:48:27.015Z,41.70
2019-04-06T21:50:57.244Z,42.67
2019-04-06T21:53:27.472Z,42.30
2019-04-06T21:56:04.159Z,42.13
2019-04-06T21:58:29.738Z,42.73
2019-04-06T22:01:01.401Z,42.27
2019-04-06T22:03:31.430Z,41.80
2019-04-06T22:06:01.541Z,40.40
2019-04-06T22:08:31.768Z,43.13
2019-04-06T22:11:01.792Z,41.30
2019-04-06T22:13:31.819Z,41.07
2019-04-06T22:16:01.879Z,42.90
2019-04-06T22:18:31.739Z,42.63
2019-04-06T22:21:01.509Z,43.10
2019-04-06T22:23:40.990Z,41.13
2019-04-06T22:26:03.173Z,42.10
2019-04-06T22:28:33.245Z,42.03
2019-04-06T22:31:03.155Z,41.13
2019-04-06T22:33:33.165Z,42.13
2019-04-06T22:36:03.288Z,40.50
2019-04-06T22:38:33.183Z,40.57
2019-04-06T22:41:03.554Z,41.50
2019-04-06T22:43:33.459Z,41.33
2019-04-06T22:46:03.266Z,40.10
2019-04-06T22:48:33.560Z,39.80
2019-04-06T22:51:03.472Z,41.30
2019-04-06T22:53:33.349Z,40.13
2019-04-06T22:56:03.400Z,37.93
2019-04-06T22:58:33.400Z,39.90
2019-04-06T23:01:05.404Z,38.77
2019-04-06T23:03:36.960Z,38.50
2019-04-06T23:06:10.876Z,38.63
2019-04-06T23:08:40.728Z,37.17
2019-04-06T23:11:10.555Z,37.97
2019-04-06T23:13:40.372Z,38.60
2019-04-06T23:16:10.358Z,37.00
2019-04-06T23:18:40.186Z,36.03
2019-04-06T23:21:09.992Z,35.50
2019-04-06T23:23:39.796Z,35.03
2019-04-06T23:26:10.070Z,35.70
2019-04-06T23:28:39.921Z,35.33
2019-04-06T23:31:09.737Z,34.93
2019-04-06T23:33:39.669Z,34.67
2019-04-06T23:36:09.965Z,34.87
2019-04-06T23:38:39.834Z,35.13
2019-04-06T23:41:09.786Z,36.03
2019-04-06T23:43:39.677Z,36.30
2019-04-06T23:46:09.833Z,33.73
2019-04-06T23:48:39.667Z,34.83
2019-04-06T23:51:09.491Z,34.53
2019-04-06T23:53:39.866Z,35.83
2019-04-06T23:56:10.118Z,36.60
2019-04-06T23:58:39.988Z,35.80
